• Join FlightAware (Why Join?)
  • Login
  • US Flag 
 
04:52PM EST


 

Airport Tracker/Info


-or-


 

Live Flight TrackerFlight Track Log ✈ XOJ549 ✈ 05-Jul-2013 ✈ KDTS - KIAH

Flight Track Log - Related Links

Times and Time Zones

All times are in EDT time to prevent confusion due to time zone crossing. See the XOJ549 flight status page for this flight to view local times or setup timezone preferences in your user account.

Time Position Orientation Groundspeed Altitude Reporting Facility
EDT Latitude Longitude Course Direction KTS MPH feet Rate Location/Type
11:23AM 30.3292 -86.4686 339° North 213 245 3,900  Level Jacksonville Center
11:24AM 30.3756 -86.5258 313° West 278 320 7,100 3,000 Climbing Jacksonville Center
11:25AM 30.4536 -86.5647 337° Northwest 290 334 10,000 2,100 Climbing Jacksonville Center
11:26AM 30.5350 -86.5681 358° North 287 330 11,300 2,280 Climbing Jacksonville Center
11:27AM 30.4016 -86.4722 339° North  Level FlightAware Approximate
11:27AM 30.6331 -86.5694 359° North 313 360 14,600  Level Jacksonville Center
11:28AM 30.4914 -86.5128 339° North  Level FlightAware Approximate
11:28AM 30.7353 -86.5758 357° North 343 395 17,800  Level Jacksonville Center
11:29AM 30.8414 -86.5822 357° North 362 417 20,300 2,160 Climbing Jacksonville Center
11:30AM 30.9494 -86.6011 351° North 380 437 22,200 1,680 Climbing Jacksonville Center
11:31AM 30.9925 -86.6947 298° West 344 396 23,700 1,620 Climbing Jacksonville Center
11:32AM 30.9950 -86.8183 271° West 317 365 25,500 1,920 Climbing Jacksonville Center
11:33AM 30.9828 -86.9439 264° West 351 404 27,600 1,920 Climbing Jacksonville Center
11:34AM 30.9683 -87.0717 263° West 372 428 29,400 1,560 Climbing Jacksonville Center
11:35AM 30.9381 -87.3092 262° West 429 494 31,800 1,620 Climbing Houston Center
11:36AM 30.9225 -87.4467 263° West 430 495 33,900 1,980 Climbing Houston Center
11:38AM 30.9078 -87.5803 263° West 418 481 35,900 1,800 Climbing Houston Center
11:39AM 30.8919 -87.7061 262° West 411 473 37,600 1,440 Climbing Houston Center
11:40AM 30.8761 -87.8372 262° West 410 472 38,900 1,860 Climbing Houston Center
11:41AM 30.8589 -87.9883 262° West 395 455 41,500 1,800 Climbing Houston Center
11:42AM 30.8425 -88.1097 261° West 383 441 42,700 720 Climbing Houston Center
11:43AM 30.8222 -88.2322 259° West 386 444 43,000 60 Climbing Houston Center
11:44AM 30.7844 -88.3514 250° West 392 451 42,900  Descending Houston Center
11:45AM 30.7486 -88.4678 250° West 385 443 43,000  Climbing Houston Center
11:46AM 30.7133 -88.5847 251° West 384 442 43,000  Level Houston Center
11:47AM 30.6728 -88.7164 250° West 389 448 43,000  Level Houston Center
11:48AM 30.6353 -88.8364 250° West 395 455 43,000  Level Houston Center
11:49AM 30.5958 -88.9669 251° West 397 457 43,000 -60 Level Houston Center
11:50AM 30.5617 -89.0842 251° West 385 443 42,900  Descending Houston Center
11:51AM 30.5250 -89.1981 250° West 377 434 43,000 240 Climbing Houston Center
11:52AM 30.4894 -89.3150 251° West 383 441 43,500 720 Climbing Houston Center
11:53AM 30.4536 -89.4303 250° West 381 438 44,500 720 Climbing Houston Center
11:54AM 30.4186 -89.5425 250° West 372 428 45,000 240 Climbing Houston Center
11:55AM 30.3728 -89.6744 248° West 409 471 45,000  Level Houston Center
11:56AM 30.3344 -89.7917 249° West 393 452 45,000  Level Houston Center
11:57AM 30.2972 -89.9092 250° West 389 448 45,000  Level Houston Center
11:58AM 30.2642 -90.0250 252° West 386 444 45,000  Level Houston Center
11:59AM 30.2264 -90.1406 249° West 394 453 45,000  Level Houston Center
12:00PM 30.1808 -90.2806 249° West 389 448 45,000 -60 Level Houston Center
12:01PM 30.1442 -90.3961 250° West 385 443 44,900  Descending Houston Center
12:02PM 30.1064 -90.5119 249° West 385 443 45,000  Climbing Houston Center
12:03PM 30.0675 -90.6278 249° West 386 444 45,000  Level Houston Center
12:04PM 30.0297 -90.7467 250° West 392 451 45,000  Level Houston Center
12:05PM 29.9903 -90.8644 249° West 395 455 45,000  Level Houston Center
12:06PM 29.9511 -90.9847 249° West 400 460 45,000  Level Houston Center
12:07PM 29.9042 -91.1283 249° West 400 460 45,000  Level Houston Center
12:08PM 29.8639 -91.2475 249° West 400 460 45,000  Level Houston Center
12:09PM 29.8242 -91.3689 249° West 404 465 45,000  Level Houston Center
12:10PM 29.7844 -91.4883 249° West 401 461 45,000  Level Houston Center
12:11PM 29.7444 -91.6064 249° West 398 458 45,000  Level Houston Center
12:12PM 29.7039 -91.7283 249° West 395 455 45,000  Level Houston Center
12:13PM 29.6636 -91.8469 249° West 398 458 45,000  Level Houston Center
12:14PM 29.6228 -91.9653 248° West 398 458 45,000  Level Houston Center
12:16PM 29.5750 -92.1081 249° West 400 460 45,000  Level Houston Center
12:17PM 29.5344 -92.2272 249° West 400 460 45,000  Level Houston Center
12:18PM 29.4942 -92.3478 249° West 403 464 45,000 -360 Level Houston Center
12:19PM 29.4600 -92.4708 252° West 406 467 44,300 -1,500 Descending Houston Center
12:20PM 29.4625 -92.6036 271° West 414 476 42,000 -2,100 Descending Houston Center
12:21PM 29.4689 -92.7347 273° West 415 478 40,000 -1,860 Descending Houston Center
12:22PM 29.4742 -92.8647 273° West 408 470 38,200 -2,220 Descending Houston Center
12:23PM 29.4811 -92.9936 274° West 405 466 35,500 -2,700 Descending Houston Center
12:24PM 29.4872 -93.1556 273° West 420 483 32,700 -2,520 Descending Houston Center
12:25PM 29.4933 -93.2944 273° West 431 496 30,400 -2,220 Descending Houston Center
12:26PM 29.4986 -93.4303 273° West 428 493 28,200 -2,160 Descending Houston Center
12:27PM 29.5050 -93.5611 273° West 412 474 26,000 -2,100 Descending Houston Center
12:28PM 29.5097 -93.6842 273° West 392 451 23,900 -2,040 Descending Houston Center
12:29PM 29.5139 -93.8056 272° West 383 441 21,900 -1,920 Descending Houston Center
12:30PM 29.5172 -93.9200 272° West 366 421 20,000 -1,920 Descending Houston Center
12:31PM 29.5225 -94.0414 273° West 347 399 18,100 -1,860 Descending Houston Center
12:32PM 29.5264 -94.1394 273° West 339 390 16,500 -1,920 Descending Houston Center
12:33PM 29.5297 -94.2567 272° West 346 398 14,500 -1,680 Descending Houston Center
12:34PM 29.5428 -94.3656 278° West 344 396 13,100 -1,200 Descending Houston Center
12:35PM 29.5783 -94.4500 296° West 312 359 12,200 -1,380 Descending Houston Center
12:36PM 29.6192 -94.5458 296° West 297 342 10,300 -1,620 Descending Houston Center
12:37PM 29.6561 -94.6203 300° West 291 335 8,900 -1,380 Descending Houston Center
12:38PM 29.7231 -94.6842 320° Northwest 288 331 7,500 -1,380 Descending Houston Center
12:39PM 29.7808 -94.7369 322° Northwest 287 330 6,200 -1,740 Descending Houston Center
12:40PM 29.8500 -94.8006 321° Northwest 277 319 4,000 -1,500 Descending Houston Center
12:41PM 29.8861 -94.8731 300° West 271 312 3,100 -660 Descending Houston Center
12:42PM 29.9203 -94.9672 293° West 268 308 2,600 -540 Descending Houston Center
12:43PM 29.9386 -95.0256 290° West 267 307 2,100 -300 Descending Houston Center
12:44PM 29.9667 -95.1017 293° West 234 269 2,100  Level Houston Center
12:45PM 29.9789 -95.1653 283° West 186 214 2,100 -300 Level Houston Center
12:46PM 29.9781 -95.2258 269° West 185 213 1,600 -780 Descending Houston Center
12:47PM 29.9772 -95.2839 269° West 141 162 500 -1,020 Descending Houston Center
12:49PM 29.9833 -95.3333 311° West  Level FlightAware Approximate
12:56PM 29.9844 -95.3414 311° West  Level Estimated